createdAt,value
2024-05-09T00:00:22.164Z,1021.86
2024-05-09T00:01:16.758Z,1021.89
2024-05-09T00:02:15.693Z,1021.97
2024-05-09T00:03:15.784Z,1021.92
2024-05-09T00:04:15.680Z,1021.93
2024-05-09T00:05:15.802Z,1021.99
2024-05-09T00:06:15.690Z,1021.88
2024-05-09T00:07:15.595Z,1021.95
2024-05-09T00:08:15.662Z,1021.93
2024-05-09T00:09:15.583Z,1021.93
2024-05-09T00:10:24.994Z,1021.90
2024-05-09T00:11:16.609Z,1021.88
2024-05-09T00:12:15.644Z,1021.95
2024-05-09T00:13:15.528Z,1021.94
2024-05-09T00:14:15.548Z,1021.91
2024-05-09T00:15:15.606Z,1021.92
2024-05-09T00:16:15.503Z,1021.88
2024-05-09T00:17:15.609Z,1021.90
2024-05-09T00:18:15.583Z,1021.93
2024-05-09T00:19:15.591Z,1021.85
2024-05-09T00:20:20.522Z,1021.91
2024-05-09T00:21:16.502Z,1021.82
2024-05-09T00:22:15.425Z,1021.86
2024-05-09T00:23:15.595Z,1021.81
2024-05-09T00:24:15.414Z,1021.80
2024-05-09T00:25:15.392Z,1021.79
2024-05-09T00:26:15.460Z,1021.80
2024-05-09T00:27:15.361Z,1021.79
2024-05-09T00:28:15.355Z,1021.82
2024-05-09T00:29:15.381Z,1021.85
2024-05-09T00:30:24.145Z,1021.80
2024-05-09T00:31:16.342Z,1021.80
2024-05-09T00:32:15.379Z,1021.80
2024-05-09T00:33:15.426Z,1021.78
2024-05-09T00:34:15.418Z,1021.80
2024-05-09T00:35:15.307Z,1021.75
2024-05-09T00:36:15.291Z,1021.78
2024-05-09T00:37:15.256Z,1021.79
2024-05-09T00:38:15.282Z,1021.74
2024-05-09T00:39:15.229Z,1021.74
2024-05-09T00:40:22.912Z,1021.77
2024-05-09T00:41:18.959Z,1021.76
2024-05-09T00:42:15.203Z,1021.73
2024-05-09T00:43:15.585Z,1021.66
2024-05-09T00:44:15.191Z,1021.70
2024-05-09T00:45:15.199Z,1021.73
2024-05-09T00:46:15.165Z,1021.69
2024-05-09T00:47:15.244Z,1021.71
2024-05-09T00:48:17.744Z,1021.66
2024-05-09T00:49:16.240Z,1021.70
2024-05-09T00:50:19.426Z,1021.62
2024-05-09T00:51:16.238Z,1021.69
2024-05-09T00:52:15.099Z,1021.67
2024-05-09T00:53:15.488Z,1021.68
2024-05-09T00:54:15.063Z,1021.65
2024-05-09T00:55:15.063Z,1021.63
2024-05-09T00:56:15.065Z,1021.65
2024-05-09T00:57:15.046Z,1021.62
2024-05-09T00:58:15.012Z,1021.60
2024-05-09T00:59:15.057Z,1021.62
2024-05-09T01:00:22.528Z,1021.59
2024-05-09T01:01:16.040Z,1021.62
2024-05-09T01:02:15.075Z,1021.60
2024-05-09T01:03:15.252Z,1021.59
2024-05-09T01:04:15.029Z,1021.65
2024-05-09T01:05:15.092Z,1021.66
2024-05-09T01:06:14.956Z,1021.64
2024-05-09T01:07:14.921Z,1021.58
2024-05-09T01:08:14.953Z,1021.65
2024-05-09T01:09:14.915Z,1021.67
2024-05-09T01:10:21.202Z,1021.67
2024-05-09T01:11:15.967Z,1021.61
2024-05-09T01:12:15.103Z,1021.72
2024-05-09T01:13:14.876Z,1021.69
2024-05-09T01:14:14.873Z,1021.63
2024-05-09T01:15:14.825Z,1021.64
2024-05-09T01:16:14.821Z,1021.68
2024-05-09T01:17:15.015Z,1021.61
2024-05-09T01:18:15.103Z,1021.58
2024-05-09T01:19:15.172Z,1021.60
2024-05-09T01:20:20.223Z,1021.60
2024-05-09T01:21:15.880Z,1021.59
2024-05-09T01:22:14.750Z,1021.56
2024-05-09T01:23:16.215Z,1021.58
2024-05-09T01:24:14.742Z,1021.63
2024-05-09T01:25:14.725Z,1021.57
2024-05-09T01:26:14.785Z,1021.62
2024-05-09T01:27:14.713Z,1021.61
2024-05-09T01:28:14.715Z,1021.63
2024-05-09T01:29:14.712Z,1021.59
2024-05-09T01:30:17.323Z,1021.61
2024-05-09T01:31:15.662Z,1021.60
2024-05-09T01:32:14.723Z,1021.61
2024-05-09T01:33:14.885Z,1021.63
2024-05-09T01:34:14.670Z,1021.63
2024-05-09T01:35:14.646Z,1021.65
2024-05-09T01:36:14.639Z,1021.57
2024-05-09T01:37:14.582Z,1021.62
2024-05-09T01:38:14.602Z,1021.56
2024-05-09T01:39:14.575Z,1021.54
2024-05-09T01:40:18.648Z,1021.52
2024-05-09T01:41:15.604Z,1021.53
2024-05-09T01:42:14.528Z,1021.49
2024-05-09T01:43:14.523Z,1021.48
2024-05-09T01:44:14.551Z,1021.52
2024-05-09T01:45:14.502Z,1021.49
2024-05-09T01:46:14.482Z,1021.52
2024-05-09T01:47:14.628Z,1021.56
2024-05-09T01:48:14.733Z,1021.58
2024-05-09T01:49:14.585Z,1021.49
2024-05-09T01:51:14.640Z,1021.50
2024-05-09T01:52:14.423Z,1021.54
2024-05-09T01:53:15.228Z,1021.52
2024-05-09T01:54:14.391Z,1021.50
2024-05-09T01:55:14.394Z,1021.49
2024-05-09T01:56:14.447Z,1021.53
2024-05-09T01:57:14.372Z,1021.59
2024-05-09T01:58:14.352Z,1021.52
2024-05-09T01:59:14.462Z,1021.52
2024-05-09T02:00:22.112Z,1021.59
2024-05-09T02:01:15.354Z,1021.57
2024-05-09T02:02:14.490Z,1021.56
2024-05-09T02:03:16.782Z,1021.52
2024-05-09T02:04:14.547Z,1021.52
2024-05-09T02:05:14.464Z,1021.56
2024-05-09T02:06:14.326Z,1021.53
2024-05-09T02:07:14.531Z,1021.49
2024-05-09T02:08:14.270Z,1021.49
2024-05-09T02:09:14.216Z,1021.48
2024-05-09T02:10:20.415Z,1021.49
2024-05-09T02:11:15.272Z,1021.45
2024-05-09T02:12:14.371Z,1021.54
2024-05-09T02:13:14.191Z,1021.50
2024-05-09T02:14:14.218Z,1021.47
2024-05-09T02:15:14.166Z,1021.46
2024-05-09T02:16:14.150Z,1021.46
2024-05-09T02:17:14.280Z,1021.45
2024-05-09T02:18:14.485Z,1021.48
2024-05-09T02:19:14.279Z,1021.44
2024-05-09T02:20:22.539Z,1021.45
2024-05-09T02:21:15.170Z,1021.39
2024-05-09T02:22:14.078Z,1021.48
2024-05-09T02:23:14.205Z,1021.39
2024-05-09T02:24:14.069Z,1021.45
2024-05-09T02:25:14.049Z,1021.44
2024-05-09T02:26:14.130Z,1021.43
2024-05-09T02:27:14.024Z,1021.44
2024-05-09T02:28:14.024Z,1021.42
2024-05-09T02:29:14.326Z,1021.44
2024-05-09T02:30:22.503Z,1021.51
2024-05-09T02:31:14.974Z,1021.46
2024-05-09T02:32:14.182Z,1021.45
2024-05-09T02:33:14.675Z,1021.47
2024-05-09T02:34:13.996Z,1021.45
2024-05-09T02:35:13.972Z,1021.42
2024-05-09T02:36:13.922Z,1021.42
2024-05-09T02:37:13.917Z,1021.37
2024-05-09T02:38:13.987Z,1021.35
2024-05-09T02:39:13.980Z,1021.38
2024-05-09T02:40:15.177Z,1021.39
2024-05-09T02:41:14.908Z,1021.34
2024-05-09T02:42:13.880Z,1021.36
2024-05-09T02:43:13.837Z,1021.34
2024-05-09T02:44:13.891Z,1021.40
2024-05-09T02:45:13.859Z,1021.36
2024-05-09T02:46:13.829Z,1021.34
2024-05-09T02:47:13.896Z,1021.35
2024-05-09T02:48:14.423Z,1021.36
2024-05-09T02:49:13.912Z,1021.37
2024-05-09T02:50:19.239Z,1021.39
2024-05-09T02:51:14.810Z,1021.43
2024-05-09T02:52:13.745Z,1021.43
2024-05-09T02:53:14.439Z,1021.42
2024-05-09T02:54:13.771Z,1021.39
2024-05-09T02:55:13.735Z,1021.43
2024-05-09T02:56:13.782Z,1021.48
2024-05-09T02:57:13.685Z,1021.44
2024-05-09T02:58:13.706Z,1021.44
2024-05-09T02:59:13.686Z,1021.51
2024-05-09T03:00:19.052Z,1021.43
2024-05-09T03:01:14.684Z,1021.45
2024-05-09T03:02:13.777Z,1021.44
2024-05-09T03:03:15.467Z,1021.52
2024-05-09T03:04:13.707Z,1021.43
2024-05-09T03:05:13.619Z,1021.46
2024-05-09T03:06:13.590Z,1021.40
2024-05-09T03:07:13.574Z,1021.42
2024-05-09T03:08:13.703Z,1021.46
2024-05-09T03:09:13.548Z,1021.47
2024-05-09T03:10:21.915Z,1021.43
2024-05-09T03:11:14.672Z,1021.38
2024-05-09T03:12:13.674Z,1021.43
2024-05-09T03:13:15.038Z,1021.44
2024-05-09T03:14:13.527Z,1021.39
2024-05-09T03:15:13.516Z,1021.40
2024-05-09T03:16:13.473Z,1021.35
2024-05-09T03:17:13.490Z,1021.41
2024-05-09T03:18:14.005Z,1021.38
2024-05-09T03:19:13.695Z,1021.37
2024-05-09T03:20:20.535Z,1021.35
2024-05-09T03:21:14.665Z,1021.35
2024-05-09T03:22:13.405Z,1021.31
2024-05-09T03:23:13.551Z,1021.35
2024-05-09T03:24:13.422Z,1021.29
2024-05-09T03:25:13.370Z,1021.32
2024-05-09T03:26:13.397Z,1021.31
2024-05-09T03:27:13.364Z,1021.30
2024-05-09T03:28:13.344Z,1021.31
2024-05-09T03:29:13.393Z,1021.31
2024-05-09T03:30:25.889Z,1021.33
2024-05-09T03:31:14.326Z,1021.31
2024-05-09T03:32:13.414Z,1021.31
2024-05-09T03:33:14.418Z,1021.30
2024-05-09T03:34:13.319Z,1021.33
2024-05-09T03:35:13.290Z,1021.28
2024-05-09T03:36:13.263Z,1021.34
2024-05-09T03:37:13.277Z,1021.37
2024-05-09T03:38:13.375Z,1021.30
2024-05-09T03:39:13.219Z,1021.30
2024-05-09T03:40:20.713Z,1021.30
2024-05-09T03:41:14.258Z,1021.27
2024-05-09T03:42:13.189Z,1021.27
2024-05-09T03:43:13.184Z,1021.25
2024-05-09T03:44:13.239Z,1021.26
2024-05-09T03:45:13.178Z,1021.19
2024-05-09T03:46:13.146Z,1021.24
2024-05-09T03:47:13.168Z,1021.19
2024-05-09T03:48:13.382Z,1021.20
2024-05-09T03:49:13.250Z,1021.23
2024-05-09T03:50:21.941Z,1021.21
2024-05-09T03:51:14.127Z,1021.21
2024-05-09T03:52:13.075Z,1021.29
2024-05-09T03:53:13.264Z,1021.33
2024-05-09T03:54:13.070Z,1021.31
2024-05-09T03:55:13.045Z,1021.33
2024-05-09T03:56:13.101Z,1021.33
2024-05-09T03:57:13.021Z,1021.24
2024-05-09T03:58:13.207Z,1021.28
2024-05-09T03:59:13.064Z,1021.28
2024-05-09T04:00:18.219Z,1021.27
2024-05-09T04:01:14.020Z,1021.30
2024-05-09T04:02:13.031Z,1021.29
2024-05-09T04:03:13.622Z,1021.19
2024-05-09T04:04:13.029Z,1021.18
2024-05-09T04:05:12.982Z,1021.22
2024-05-09T04:06:12.936Z,1021.22
2024-05-09T04:07:12.906Z,1021.19
2024-05-09T04:08:13.063Z,1021.20
2024-05-09T04:09:12.888Z,1021.25
2024-05-09T04:10:21.099Z,1021.25
2024-05-09T04:11:14.073Z,1021.24
2024-05-09T04:12:12.933Z,1021.27
2024-05-09T04:13:12.881Z,1021.21
2024-05-09T04:14:12.848Z,1021.23
2024-05-09T04:15:13.651Z,1021.21
2024-05-09T04:16:12.837Z,1021.24
2024-05-09T04:17:12.834Z,1021.27
2024-05-09T04:18:12.946Z,1021.22
2024-05-09T04:19:12.908Z,1021.22
2024-05-09T04:20:24.135Z,1021.23
2024-05-09T04:21:13.827Z,1021.21
2024-05-09T04:22:12.775Z,1021.13
2024-05-09T04:23:13.650Z,1021.20
2024-05-09T04:24:12.737Z,1021.14
2024-05-09T04:25:12.731Z,1021.23
2024-05-09T04:26:12.804Z,1021.21
2024-05-09T04:27:12.688Z,1021.18
2024-05-09T04:28:12.816Z,1021.20
2024-05-09T04:29:12.749Z,1021.19
2024-05-09T04:30:21.587Z,1021.26
2024-05-09T04:31:13.645Z,1021.26
2024-05-09T04:32:12.799Z,1021.20
2024-05-09T04:33:14.258Z,1021.25
2024-05-09T04:34:13.097Z,1021.27
2024-05-09T04:35:12.697Z,1021.24
2024-05-09T04:36:12.644Z,1021.26
2024-05-09T04:37:12.770Z,1021.27
2024-05-09T04:38:12.869Z,1021.25
2024-05-09T04:39:12.570Z,1021.31
2024-05-09T04:41:12.549Z,1021.23
2024-05-09T04:42:12.512Z,1021.33
2024-05-09T04:43:12.526Z,1021.31
2024-05-09T04:44:12.556Z,1021.28
2024-05-09T04:45:12.488Z,1021.33
2024-05-09T04:46:12.648Z,1021.32
2024-05-09T04:47:12.545Z,1021.38
2024-05-09T04:48:12.627Z,1021.42
2024-05-09T04:49:12.564Z,1021.33
2024-05-09T04:50:17.877Z,1021.35
2024-05-09T04:51:13.462Z,1021.35
2024-05-09T04:52:12.412Z,1021.38
2024-05-09T04:53:12.432Z,1021.36
2024-05-09T04:54:22.241Z,1021.43
2024-05-09T04:55:13.365Z,1021.38
2024-05-09T04:56:12.490Z,1021.35
2024-05-09T04:57:12.354Z,1021.40
2024-05-09T04:58:12.453Z,1021.40
2024-05-09T04:59:12.413Z,1021.38
2024-05-09T05:00:14.827Z,1021.40
2024-05-09T05:01:13.388Z,1021.37
2024-05-09T05:02:12.434Z,1021.40
2024-05-09T05:03:14.866Z,1021.38
2024-05-09T05:04:12.370Z,1021.40
2024-05-09T05:05:12.410Z,1021.43
2024-05-09T05:06:12.293Z,1021.45
2024-05-09T05:07:12.253Z,1021.43
2024-05-09T05:08:12.426Z,1021.43
2024-05-09T05:09:12.211Z,1021.42
2024-05-09T05:10:17.897Z,1021.46
2024-05-09T05:11:13.401Z,1021.40
2024-05-09T05:12:12.402Z,1021.41
2024-05-09T05:13:12.165Z,1021.45
2024-05-09T05:14:12.198Z,1021.36
2024-05-09T05:15:12.179Z,1021.40
2024-05-09T05:16:12.181Z,1021.40
2024-05-09T05:17:12.272Z,1021.51
2024-05-09T05:18:12.203Z,1021.50
2024-05-09T05:19:15.088Z,1021.46
2024-05-09T05:20:15.378Z,1021.48
2024-05-09T05:21:13.302Z,1021.53
2024-05-09T05:22:12.096Z,1021.50
2024-05-09T05:23:12.185Z,1021.51
2024-05-09T05:24:12.090Z,1021.48
2024-05-09T05:25:12.064Z,1021.50
2024-05-09T05:26:12.050Z,1021.51
2024-05-09T05:27:12.039Z,1021.45
2024-05-09T05:28:12.002Z,1021.42
2024-05-09T05:29:12.047Z,1021.47
2024-05-09T05:30:17.859Z,1021.46
2024-05-09T05:31:13.027Z,1021.51
2024-05-09T05:32:12.102Z,1021.44
2024-05-09T05:33:12.156Z,1021.47
2024-05-09T05:34:12.001Z,1021.48
2024-05-09T05:35:12.021Z,1021.49
2024-05-09T05:36:11.916Z,1021.40
2024-05-09T05:37:11.909Z,1021.38
2024-05-09T05:38:11.979Z,1021.43
2024-05-09T05:39:11.889Z,1021.42
2024-05-09T05:40:14.608Z,1021.45
2024-05-09T05:41:12.981Z,1021.39
2024-05-09T05:42:11.847Z,1021.39
2024-05-09T05:43:11.842Z,1021.38
2024-05-09T05:44:11.893Z,1021.35
2024-05-09T05:45:11.813Z,1021.42
2024-05-09T05:46:11.814Z,1021.45
2024-05-09T05:47:11.950Z,1021.42
2024-05-09T05:48:11.926Z,1021.38
2024-05-09T05:49:11.849Z,1021.34
2024-05-09T05:50:21.010Z,1021.38
2024-05-09T05:51:12.900Z,1021.38
2024-05-09T05:52:11.735Z,1021.40
2024-05-09T05:53:11.776Z,1021.39
2024-05-09T05:54:11.735Z,1021.41
2024-05-09T05:55:11.744Z,1021.34
2024-05-09T05:56:11.699Z,1021.37
2024-05-09T05:57:11.672Z,1021.37
2024-05-09T05:58:11.779Z,1021.39
2024-05-09T05:59:13.404Z,1021.37
2024-05-09T06:00:18.054Z,1021.35
2024-05-09T06:01:12.706Z,1021.42
2024-05-09T06:02:11.720Z,1021.40
2024-05-09T06:03:12.319Z,1021.44
2024-05-09T06:04:11.684Z,1021.42
2024-05-09T06:05:11.693Z,1021.41
2024-05-09T06:06:11.666Z,1021.43
2024-05-09T06:07:11.584Z,1021.45
2024-05-09T06:08:11.748Z,1021.48
2024-05-09T06:09:11.555Z,1021.53
2024-05-09T06:10:17.404Z,1021.48
2024-05-09T06:11:12.568Z,1021.49
2024-05-09T06:12:11.736Z,1021.47
2024-05-09T06:13:12.037Z,1021.53
2024-05-09T06:14:11.562Z,1021.46
2024-05-09T06:15:11.477Z,1021.48
2024-05-09T06:16:11.479Z,1021.47
2024-05-09T06:17:11.628Z,1021.39
2024-05-09T06:18:12.554Z,1021.47
2024-05-09T06:19:11.507Z,1021.46
2024-05-09T06:20:20.179Z,1021.41
2024-05-09T06:21:12.434Z,1021.38
2024-05-09T06:22:11.394Z,1021.45
2024-05-09T06:23:11.607Z,1021.39
2024-05-09T06:24:11.380Z,1021.37
2024-05-09T06:25:11.369Z,1021.49
2024-05-09T06:26:11.444Z,1021.41
2024-05-09T06:27:11.348Z,1021.48
2024-05-09T06:28:11.474Z,1021.48
2024-05-09T06:29:11.336Z,1021.47
2024-05-09T06:30:24.824Z,1021.45
2024-05-09T06:31:12.321Z,1021.48
2024-05-09T06:32:11.402Z,1021.47
2024-05-09T06:33:13.315Z,1021.43
2024-05-09T06:34:11.352Z,1021.44
2024-05-09T06:35:11.285Z,1021.50
2024-05-09T06:36:11.255Z,1021.46
2024-05-09T06:37:11.248Z,1021.48
2024-05-09T06:38:11.804Z,1021.46
2024-05-09T06:39:11.229Z,1021.46
2024-05-09T06:40:12.565Z,1021.47
2024-05-09T06:41:11.221Z,1021.42
2024-05-09T06:42:11.184Z,1021.47
2024-05-09T06:43:11.209Z,1021.49
2024-05-09T06:44:11.203Z,1021.43
2024-05-09T06:45:11.143Z,1021.48
2024-05-09T06:46:11.138Z,1021.44
2024-05-09T06:47:11.232Z,1021.47
2024-05-09T06:48:11.406Z,1021.50
2024-05-09T06:49:11.331Z,1021.53
2024-05-09T06:50:19.683Z,1021.49
2024-05-09T06:51:12.213Z,1021.44
2024-05-09T06:52:11.063Z,1021.56
2024-05-09T06:53:11.105Z,1021.51
2024-05-09T06:54:11.056Z,1021.53
2024-05-09T06:55:11.051Z,1021.54
2024-05-09T06:56:11.060Z,1021.59
2024-05-09T06:57:11.009Z,1021.47
2024-05-09T06:58:11.003Z,1021.52
2024-05-09T06:59:11.066Z,1021.51
2024-05-09T07:00:15.449Z,1021.51
2024-05-09T07:01:12.030Z,1021.46
2024-05-09T07:02:11.016Z,1021.51
2024-05-09T07:03:12.274Z,1021.51
2024-05-09T07:04:11.253Z,1021.51
2024-05-09T07:05:10.974Z,1021.49
2024-05-09T07:06:10.975Z,1021.54
2024-05-09T07:07:10.909Z,1021.49
2024-05-09T07:08:11.015Z,1021.53
2024-05-09T07:09:10.882Z,1021.60
2024-05-09T07:10:21.553Z,1021.56
2024-05-09T07:11:12.042Z,1021.53
2024-05-09T07:12:10.959Z,1021.55
2024-05-09T07:13:10.863Z,1021.54
2024-05-09T07:14:10.855Z,1021.51
2024-05-09T07:15:10.810Z,1021.50
2024-05-09T07:16:10.809Z,1021.54
2024-05-09T07:17:10.906Z,1021.53
2024-05-09T07:18:11.082Z,1021.54
2024-05-09T07:19:11.097Z,1021.58
2024-05-09T07:20:16.195Z,1021.61
2024-05-09T07:21:11.896Z,1021.60
2024-05-09T07:22:10.738Z,1021.55
2024-05-09T07:23:11.025Z,1021.52
2024-05-09T07:24:10.718Z,1021.53
2024-05-09T07:25:10.734Z,1021.57
2024-05-09T07:26:10.724Z,1021.53
2024-05-09T07:27:10.700Z,1021.51
2024-05-09T07:28:10.675Z,1021.54
2024-05-09T07:29:10.680Z,1021.52
2024-05-09T07:30:13.620Z,1021.53
2024-05-09T07:31:11.649Z,1021.54
2024-05-09T07:32:10.651Z,1021.57
2024-05-09T07:33:10.764Z,1021.52
2024-05-09T07:34:10.706Z,1021.59
2024-05-09T07:35:10.650Z,1021.53
2024-05-09T07:36:10.593Z,1021.55
2024-05-09T07:37:10.592Z,1021.46
2024-05-09T07:38:10.652Z,1021.54
2024-05-09T07:39:10.565Z,1021.54
2024-05-09T07:40:14.738Z,1021.50
2024-05-09T07:41:11.591Z,1021.48
2024-05-09T07:42:10.517Z,1021.50
2024-05-09T07:43:10.528Z,1021.56
2024-05-09T07:44:10.520Z,1021.51
2024-05-09T07:45:29.656Z,1021.54
2024-05-09T07:47:13.968Z,1021.55
2024-05-09T07:48:27.564Z,1021.56
2024-05-09T07:49:44.922Z,1021.56
2024-05-09T07:50:53.886Z,1021.49
2024-05-09T07:53:29.251Z,1021.51
2024-05-09T07:53:37.154Z,1021.50
2024-05-09T07:54:11.629Z,1021.51
2024-05-09T07:55:10.581Z,1021.49
2024-05-09T07:56:11.727Z,1021.52
2024-05-09T07:57:10.421Z,1021.49
2024-05-09T07:58:10.376Z,1021.51
2024-05-09T07:59:10.352Z,1021.54
2024-05-09T08:00:14.300Z,1021.55
2024-05-09T08:01:10.435Z,1021.60
2024-05-09T08:02:10.505Z,1021.58
2024-05-09T08:03:10.366Z,1021.56
2024-05-09T08:04:10.342Z,1021.57
2024-05-09T08:05:10.319Z,1021.54
2024-05-09T08:06:10.284Z,1021.50
2024-05-09T08:07:10.322Z,1021.50
2024-05-09T08:08:10.239Z,1021.53
2024-05-09T08:09:16.686Z,1021.45
2024-05-09T08:10:15.250Z,1021.48
2024-05-09T08:11:11.304Z,1021.47
2024-05-09T08:12:10.214Z,1021.51
2024-05-09T08:13:10.250Z,1021.48
2024-05-09T08:14:10.170Z,1021.48
2024-05-09T08:15:10.176Z,1021.51
2024-05-09T08:16:10.421Z,1021.42
2024-05-09T08:17:10.161Z,1021.45
2024-05-09T08:18:10.416Z,1021.42
2024-05-09T08:19:10.165Z,1021.45
2024-05-09T08:20:11.416Z,1021.39
2024-05-09T08:21:10.114Z,1021.44
2024-05-09T08:22:10.186Z,1021.47
2024-05-09T08:23:10.081Z,1021.45
2024-05-09T08:24:10.060Z,1021.47
2024-05-09T08:25:11.901Z,1021.39
2024-05-09T08:26:10.033Z,1021.40
2024-05-09T08:27:10.033Z,1021.41
2024-05-09T08:28:10.072Z,1021.42
2024-05-09T08:29:10.021Z,1021.42
2024-05-09T08:30:18.560Z,1021.37
2024-05-09T08:31:11.076Z,1021.35
2024-05-09T08:32:10.025Z,1021.46
2024-05-09T08:33:10.041Z,1021.45
2024-05-09T08:34:10.189Z,1021.40
2024-05-09T08:35:09.954Z,1021.40
2024-05-09T08:36:09.914Z,1021.45
2024-05-09T08:37:15.511Z,1021.42
2024-05-09T08:38:11.045Z,1021.48
2024-05-09T08:39:09.898Z,1021.41
2024-05-09T08:40:16.677Z,1021.41
2024-05-09T08:41:10.855Z,1021.47
2024-05-09T08:42:09.849Z,1021.43
2024-05-09T08:43:11.883Z,1021.41
2024-05-09T08:44:09.855Z,1021.37
2024-05-09T08:45:09.825Z,1021.33
2024-05-09T08:46:09.818Z,1021.35
2024-05-09T08:47:09.915Z,1021.35
2024-05-09T08:48:09.889Z,1021.34
2024-05-09T08:49:10.042Z,1021.38
2024-05-09T08:50:19.952Z,1021.36
2024-05-09T08:51:10.752Z,1021.34
2024-05-09T08:52:09.858Z,1021.42
2024-05-09T08:53:09.736Z,1021.44
2024-05-09T08:54:09.736Z,1021.44
2024-05-09T08:55:09.822Z,1021.42
2024-05-09T08:56:09.726Z,1021.45
2024-05-09T08:57:09.681Z,1021.39
2024-05-09T08:58:09.789Z,1021.42
2024-05-09T08:59:09.656Z,1021.33
2024-05-09T09:00:14.824Z,1021.35
2024-05-09T09:01:10.723Z,1021.36
2024-05-09T09:02:09.796Z,1021.36
2024-05-09T09:03:09.753Z,1021.34
2024-05-09T09:04:09.806Z,1021.38
2024-05-09T09:05:09.852Z,1021.38
2024-05-09T09:06:09.630Z,1021.32
2024-05-09T09:07:09.646Z,1021.38
2024-05-09T09:08:09.567Z,1021.37
2024-05-09T09:09:09.558Z,1021.34
2024-05-09T09:10:12.950Z,1021.40
2024-05-09T09:11:10.637Z,1021.28
2024-05-09T09:12:10.738Z,1021.35
2024-05-09T09:13:10.066Z,1021.36
2024-05-09T09:14:09.497Z,1021.23
2024-05-09T09:15:09.484Z,1021.32
2024-05-09T09:16:09.536Z,1021.37
2024-05-09T09:17:09.572Z,1021.32
2024-05-09T09:18:11.706Z,1021.33
2024-05-09T09:19:09.585Z,1021.28
2024-05-09T09:20:14.313Z,1021.31
2024-05-09T09:21:10.430Z,1021.31
2024-05-09T09:22:09.422Z,1021.29
2024-05-09T09:23:09.398Z,1021.27
2024-05-09T09:24:10.068Z,1021.28
2024-05-09T09:25:09.481Z,1021.28
2024-05-09T09:26:09.362Z,1021.30
2024-05-09T09:27:09.374Z,1021.33
2024-05-09T09:28:09.962Z,1021.34
2024-05-09T09:29:09.333Z,1021.36
2024-05-09T09:30:22.852Z,1021.25
2024-05-09T09:31:10.386Z,1021.29
2024-05-09T09:32:09.308Z,1021.21
2024-05-09T09:33:09.511Z,1021.27
2024-05-09T09:34:09.499Z,1021.22
2024-05-09T09:35:09.318Z,1021.29
2024-05-09T09:36:11.554Z,1021.21
2024-05-09T09:37:09.590Z,1021.22
2024-05-09T09:38:09.243Z,1021.15
2024-05-09T09:39:09.222Z,1021.22
2024-05-09T09:40:12.862Z,1021.18
2024-05-09T09:41:09.272Z,1021.25
2024-05-09T09:42:09.190Z,1021.23
2024-05-09T09:43:09.200Z,1021.23
2024-05-09T09:44:09.181Z,1021.17
2024-05-09T09:45:09.162Z,1021.18
2024-05-09T09:46:12.339Z,1021.19
2024-05-09T09:47:09.166Z,1021.22
2024-05-09T09:48:09.227Z,1021.16
2024-05-09T09:49:09.265Z,1021.14
2024-05-09T09:50:14.305Z,1021.14
2024-05-09T09:51:10.117Z,1021.13
2024-05-09T09:52:11.136Z,1021.14
2024-05-09T09:53:09.084Z,1021.10
2024-05-09T09:54:09.059Z,1021.10
2024-05-09T09:55:09.106Z,1021.13
2024-05-09T09:56:09.160Z,1021.16
2024-05-09T09:57:09.031Z,1021.13
2024-05-09T09:58:12.180Z,1021.15
2024-05-09T09:59:10.004Z,1021.17
2024-05-09T10:00:11.881Z,1021.16
2024-05-09T10:01:10.110Z,1021.12
2024-05-09T10:02:09.350Z,1021.07
2024-05-09T10:03:09.073Z,1021.06
2024-05-09T10:04:09.054Z,1021.05
2024-05-09T10:05:09.004Z,1021.07
2024-05-09T10:06:09.004Z,1021.04
2024-05-09T10:07:09.062Z,1021.02
2024-05-09T10:08:08.910Z,1021.04
2024-05-09T10:09:08.891Z,1021.04
2024-05-09T10:10:11.028Z,1021.13
2024-05-09T10:11:08.934Z,1021.08
2024-05-09T10:12:09.526Z,1021.05
2024-05-09T10:13:09.169Z,1021.02
2024-05-09T10:14:08.836Z,1020.96
2024-05-09T10:15:08.821Z,1020.97
2024-05-09T10:16:08.878Z,1021.03
2024-05-09T10:17:08.839Z,1021.00
2024-05-09T10:18:08.959Z,1020.94
2024-05-09T10:19:08.875Z,1020.99
2024-05-09T10:20:14.891Z,1020.95
2024-05-09T10:21:09.757Z,1020.98
2024-05-09T10:22:08.904Z,1020.86
2024-05-09T10:23:08.779Z,1020.90
2024-05-09T10:24:08.735Z,1020.89
2024-05-09T10:25:08.771Z,1020.97
2024-05-09T10:26:08.806Z,1020.90
2024-05-09T10:27:08.698Z,1020.87
2024-05-09T10:28:08.812Z,1020.82
2024-05-09T10:29:08.683Z,1020.88
2024-05-09T10:30:14.421Z,1020.90
2024-05-09T10:31:09.781Z,1020.84
2024-05-09T10:32:08.649Z,1020.90
2024-05-09T10:33:08.742Z,1020.92
2024-05-09T10:34:08.836Z,1020.88
2024-05-09T10:35:08.705Z,1020.87
2024-05-09T10:36:08.596Z,1020.83
2024-05-09T10:37:08.619Z,1020.79
2024-05-09T10:38:08.565Z,1020.73
2024-05-09T10:39:08.571Z,1020.75
2024-05-09T10:40:14.107Z,1020.79
2024-05-09T10:41:09.542Z,1020.82
2024-05-09T10:42:08.527Z,1020.77
2024-05-09T10:43:08.535Z,1020.77
2024-05-09T10:44:08.512Z,1020.80
2024-05-09T10:45:08.502Z,1020.79
2024-05-09T10:46:08.722Z,1020.81
2024-05-09T10:47:08.549Z,1020.78
2024-05-09T10:48:08.552Z,1020.78
2024-05-09T10:49:08.615Z,1020.79
2024-05-09T10:50:18.015Z,1020.83
2024-05-09T10:51:09.420Z,1020.78
2024-05-09T10:52:08.620Z,1020.76
2024-05-09T10:53:08.397Z,1020.72
2024-05-09T10:54:08.395Z,1020.72
2024-05-09T10:55:08.486Z,1020.79
2024-05-09T10:56:08.370Z,1020.73
2024-05-09T10:57:08.352Z,1020.68
2024-05-09T10:58:08.568Z,1020.69
2024-05-09T10:59:08.361Z,1020.69
2024-05-09T11:00:15.597Z,1020.64
2024-05-09T11:01:09.489Z,1020.58
2024-05-09T11:02:08.685Z,1020.66
2024-05-09T11:03:08.293Z,1020.65
2024-05-09T11:04:08.482Z,1020.66
2024-05-09T11:05:08.297Z,1020.66
2024-05-09T11:06:08.276Z,1020.65
2024-05-09T11:07:08.362Z,1020.64
2024-05-09T11:08:08.251Z,1020.59
2024-05-09T11:09:08.246Z,1020.64
2024-05-09T11:10:12.487Z,1020.59
2024-05-09T11:11:09.234Z,1020.62
2024-05-09T11:12:08.318Z,1020.60
2024-05-09T11:13:08.288Z,1020.54
2024-05-09T11:14:08.165Z,1020.56
2024-05-09T11:15:08.172Z,1020.54
2024-05-09T11:16:08.206Z,1020.52
2024-05-09T11:17:08.166Z,1020.54
2024-05-09T11:18:08.250Z,1020.54
2024-05-09T11:19:08.228Z,1020.51
2024-05-09T11:20:13.565Z,1020.54
2024-05-09T11:21:09.086Z,1020.49
2024-05-09T11:22:08.173Z,1020.48
2024-05-09T11:23:08.088Z,1020.45
2024-05-09T11:24:10.988Z,1020.38
2024-05-09T11:25:08.076Z,1020.36
2024-05-09T11:26:08.047Z,1020.40
2024-05-09T11:27:08.053Z,1020.36
2024-05-09T11:28:08.071Z,1020.41
2024-05-09T11:29:08.012Z,1020.40
2024-05-09T11:30:14.186Z,1020.35
2024-05-09T11:31:09.875Z,1020.34
2024-05-09T11:32:08.092Z,1020.36
2024-05-09T11:33:08.046Z,1020.27
2024-05-09T11:34:07.976Z,1020.33
2024-05-09T11:35:07.943Z,1020.36
2024-05-09T11:36:07.946Z,1020.27
2024-05-09T11:37:07.963Z,1020.34
2024-05-09T11:38:07.933Z,1020.34
2024-05-09T11:39:07.900Z,1020.33
2024-05-09T11:40:13.755Z,1020.31
2024-05-09T11:41:08.891Z,1020.30
2024-05-09T11:42:07.935Z,1020.27
2024-05-09T11:43:07.952Z,1020.34
2024-05-09T11:44:07.835Z,1020.34
2024-05-09T11:45:07.822Z,1020.25
2024-05-09T11:46:07.835Z,1020.24
2024-05-09T11:47:07.868Z,1020.21
2024-05-09T11:48:07.832Z,1020.19
2024-05-09T11:49:07.965Z,1020.18
2024-05-09T11:50:08.201Z,1020.21
2024-05-09T11:51:07.752Z,1020.14
2024-05-09T11:52:07.826Z,1020.15
2024-05-09T11:53:07.755Z,1020.05
2024-05-09T11:54:07.733Z,1020.09
2024-05-09T11:55:07.706Z,1020.06
2024-05-09T11:56:07.699Z,1020.00
2024-05-09T11:57:07.688Z,1020.04
2024-05-09T11:58:07.752Z,1020.03
2024-05-09T11:59:07.842Z,1020.00
2024-05-09T12:00:09.671Z,1020.04
2024-05-09T12:01:07.855Z,1020.02
2024-05-09T12:02:07.800Z,1020.00
2024-05-09T12:03:07.666Z,1019.99
2024-05-09T12:04:07.753Z,1019.97
2024-05-09T12:05:07.681Z,1020.01
2024-05-09T12:06:07.745Z,1019.98
2024-05-09T12:07:09.136Z,1019.90
2024-05-09T12:08:07.594Z,1019.96
2024-05-09T12:09:07.554Z,1019.92